Time;durP1;ratioP1;P1;durP2;ratioP2;P2;SDS_P1;SDS_P2;PMS_P1;PMS_P2;Temp;Humidity;BMP_temperature;BMP_pressure;BME280_temperature;BME280_humidity;BME280_pressure;Samples;Min_cycle;Max_cycle;Signal;HPM_P1;HPM_P2
2023/05/03 00:01:08;;;;;;;4.63;1.00;;;7.40;99.90;;;;;;5028882;28;20038;-62
2023/05/03 00:03:34;;;;;;;9.93;1.50;;;7.40;99.90;;;;;;5031167;28;20025;-62
2023/05/03 00:06:10;;;;;;;2.53;0.90;;;7.40;99.90;;;;;;5032052;28;20446;-62
2023/05/03 00:08:36;;;;;;;5.97;1.27;;;7.40;99.90;;;;;;5029873;28;20026;-62
2023/05/03 00:11:01;;;;;;;6.43;1.80;;;7.40;99.90;;;;;;5030243;28;20036;-62
2023/05/03 00:13:27;;;;;;;4.23;1.50;;;7.40;99.90;;;;;;5030780;28;20049;-62
2023/05/03 00:15:53;;;;;;;7.63;1.50;;;7.40;99.90;;;;;;5029612;28;20030;-62
2023/05/03 00:18:19;;;;;;;3.70;1.03;;;7.40;99.90;;;;;;5032493;28;20096;-62
2023/05/03 00:20:45;;;;;;;4.10;1.30;;;7.40;99.90;;;;;;5032146;28;20061;-62
2023/05/03 00:23:12;;;;;;;5.50;1.20;;;7.30;99.90;;;;;;5032146;28;20025;-62
2023/05/03 00:25:38;;;;;;;5.57;1.30;;;7.30;99.90;;;;;;5021525;28;20033;-62
2023/05/03 00:28:04;;;;;;;5.97;1.07;;;7.30;99.90;;;;;;5031664;28;20435;-62
2023/05/03 00:30:30;;;;;;;10.63;1.90;;;7.20;99.90;;;;;;5032271;28;20041;-62
2023/05/03 00:32:56;;;;;;;6.17;1.10;;;7.20;99.90;;;;;;5030917;28;20025;-62
2023/05/03 00:35:22;;;;;;;9.77;1.40;;;7.10;99.90;;;;;;5030162;28;20028;-62
2023/05/03 00:37:47;;;;;;;3.30;1.27;;;7.10;99.90;;;;;;5031300;28;20052;-77
2023/05/03 00:40:17;;;;;;;2.17;1.30;;;7.00;99.90;;;;;;5027471;28;20424;-62
2023/05/03 00:42:43;;;;;;;6.07;1.15;;;6.90;99.90;;;;;;5028118;28;20040;-62
2023/05/03 00:45:10;;;;;;;4.03;1.35;;;6.80;99.90;;;;;;5025915;28;20022;-77
2023/05/03 00:47:35;;;;;;;7.03;1.52;;;6.80;99.90;;;;;;5032385;28;20029;-62
2023/05/03 00:50:02;;;;;;;4.37;1.33;;;6.90;99.90;;;;;;5031956;28;20047;-62
2023/05/03 00:52:28;;;;;;;8.85;1.40;;;6.80;99.90;;;;;;5030820;28;20521;-62
2023/05/03 00:54:56;;;;;;;3.35;1.20;;;6.70;99.90;;;;;;5020750;28;20363;-62
2023/05/03 00:57:23;;;;;;;2.85;1.30;;;6.60;99.90;;;;;;5027326;28;20393;-62
2023/05/03 00:59:49;;;;;;;;;;;6.60;99.90;;;;;;5027708;28;20417;-62
2023/05/03 01:02:14;;;;;;;4.43;1.20;;;6.50;99.90;;;;;;5018763;28;19964;-76
2023/05/03 01:04:41;;;;;;;6.27;1.43;;;6.50;99.90;;;;;;5037333;28;20289;-62
2023/05/03 01:07:49;;;;;;;5.07;1.35;;;6.40;99.90;;;;;;5037260;28;20021;-62
2023/05/03 01:10:39;;;;;;;4.53;1.40;;;6.50;99.90;;;;;;5028953;28;20040;-62
2023/05/03 01:13:17;;;;;;;4.03;1.60;;;6.50;99.90;;;;;;5024321;28;20506;-62
2023/05/03 01:15:45;;;;;;;8.82;1.70;;;6.40;99.90;;;;;;5029883;28;20037;-62
2023/05/03 01:18:17;;;;;;;5.80;1.60;;;6.30;99.90;;;;;;5037085;28;20021;-62
2023/05/03 01:20:47;;;;;;;3.95;1.45;;;6.30;99.90;;;;;;5035786;28;20025;-62
2023/05/03 01:23:32;;;;;;;4.05;1.45;;;6.20;99.90;;;;;;5036679;28;20024;-62
2023/05/03 01:25:57;;;;;;;4.85;1.73;;;6.20;99.90;;;;;;5028625;28;20315;-62
2023/05/03 01:28:23;;;;;;;11.87;1.90;;;6.20;99.90;;;;;;5037239;28;20029;-62
2023/05/03 01:30:51;;;;;;;3.77;1.57;;;6.20;99.90;;;;;;5033222;28;20049;-61
2023/05/03 01:33:35;;;;;;;7.07;1.70;;;6.10;99.90;;;;;;5034202;28;20021;-78
2023/05/03 01:36:12;;;;;;;3.92;1.60;;;6.10;99.90;;;;;;5032811;28;20025;-62
2023/05/03 01:38:38;;;;;;;3.05;1.60;;;6.30;99.90;;;;;;5018741;28;20029;-77
2023/05/03 01:41:10;;;;;;;6.07;1.52;;;6.40;99.90;;;;;;5028504;28;20332;-62
2023/05/03 01:43:39;;;;;;;3.55;1.70;;;6.40;99.90;;;;;;5017331;28;20022;-62
2023/05/03 01:46:05;;;;;;;7.13;2.00;;;6.40;99.90;;;;;;5020965;28;20030;-62
2023/05/03 01:48:31;;;;;;;3.23;1.67;;;6.40;99.90;;;;;;5031194;28;20049;-62
2023/05/03 01:50:57;;;;;;;6.77;1.63;;;6.30;99.90;;;;;;5031406;28;20593;-62
2023/05/03 01:53:22;;;;;;;2.03;1.33;;;6.10;99.90;;;;;;5026472;28;20127;-62
2023/05/03 01:55:48;;;;;;;7.13;1.40;;;6.10;99.90;;;;;;5023453;28;20022;-62
2023/05/03 01:58:14;;;;;;;5.27;1.57;;;6.00;99.90;;;;;;5020612;28;20063;-62
2023/05/03 02:00:40;;;;;;;4.40;1.65;;;5.90;99.90;;;;;;5016543;28;20017;-62
2023/05/03 02:03:06;;;;;;;3.80;1.27;;;5.90;99.90;;;;;;5024721;28;20742;-76
2023/05/03 02:05:32;;;;;;;5.57;1.60;;;6.00;99.90;;;;;;5036235;28;20030;-62
2023/05/03 02:07:57;;;;;;;8.70;1.73;;;5.90;99.90;;;;;;5019597;28;20060;-62
2023/05/03 02:10:24;;;;;;;6.97;1.60;;;5.90;99.90;;;;;;5028801;28;20033;-62
2023/05/03 02:12:49;;;;;;;3.78;1.90;;;5.80;99.90;;;;;;5020308;28;20025;-76
2023/05/03 02:15:17;;;;;;;3.03;1.90;;;5.80;99.90;;;;;;5035973;28;20037;-62
2023/05/03 02:17:44;;;;;;;3.80;1.83;;;5.80;99.90;;;;;;5034204;28;20030;-62
2023/05/03 02:20:10;;;;;;;;;;;5.80;99.90;;;;;;5034486;28;20036;-76
2023/05/03 02:22:36;;;;;;;;;;;5.80;99.90;;;;;;5034794;28;19955;-62
2023/05/03 02:25:02;;;;;;;6.40;1.50;;;5.80;99.90;;;;;;5026494;28;19909;-62
2023/05/03 02:27:27;;;;;;;2.93;1.73;;;5.80;99.90;;;;;;5029734;28;20508;-62
2023/05/03 02:29:54;;;;;;;4.23;2.33;;;5.80;99.90;;;;;;5034595;28;20059;-62
2023/05/03 02:32:19;;;;;;;4.35;2.22;;;5.80;99.90;;;;;;5025902;28;20479;-62
2023/05/03 02:34:47;;;;;;;3.97;1.73;;;5.80;99.90;;;;;;5020077;28;20029;-62
2023/05/03 02:37:14;;;;;;;5.03;1.60;;;5.70;99.90;;;;;;5022106;28;20029;-76
2023/05/03 02:39:39;;;;;;;3.47;2.45;;;5.70;99.90;;;;;;5021067;28;20033;-62
2023/05/03 02:42:06;;;;;;;3.73;1.80;;;5.80;99.90;;;;;;5022361;28;20025;-62
2023/05/03 02:44:32;;;;;;;;;;;5.80;99.90;;;;;;5023298;28;20026;-62
2023/05/03 02:46:58;;;;;;;8.33;2.20;;;5.70;99.90;;;;;;5025513;28;19921;-62
2023/05/03 02:49:23;;;;;;;7.30;2.07;;;5.60;99.90;;;;;;5029359;28;20033;-61
2023/05/03 02:51:51;;;;;;;2.80;2.10;;;5.50;99.90;;;;;;5027046;28;20151;-62
2023/05/03 02:54:17;;;;;;;4.70;2.17;;;5.50;99.90;;;;;;5027254;28;20018;-76
2023/05/03 02:56:43;;;;;;;5.47;1.95;;;5.40;99.90;;;;;;5025950;28;20036;-62
2023/05/03 02:59:09;;;;;;;3.07;2.07;;;5.40;99.90;;;;;;5028165;28;20025;-62
2023/05/03 03:01:35;;;;;;;5.77;1.97;;;5.30;99.90;;;;;;5024546;28;20053;-62
2023/05/03 03:04:01;;;;;;;8.43;2.60;;;5.30;99.90;;;;;;5015184;28;20037;-64
2023/05/03 03:06:27;;;;;;;3.20;2.35;;;5.20;99.90;;;;;;5015057;28;20364;-62
2023/05/03 03:08:52;;;;;;;6.50;1.67;;;5.20;99.90;;;;;;5016386;28;20045;-62
2023/05/03 03:11:18;;;;;;;7.03;2.10;;;5.30;99.90;;;;;;5021588;28;20034;-62
2023/05/03 03:13:44;;;;;;;3.77;2.30;;;5.20;99.90;;;;;;5015019;28;20081;-62
2023/05/03 03:16:10;;;;;;;3.97;1.83;;;5.20;99.90;;;;;;5016374;28;20037;-62
2023/05/03 03:18:36;;;;;;;7.67;2.30;;;5.20;99.90;;;;;;5016584;28;20033;-62
2023/05/03 03:21:02;;;;;;;4.38;2.03;;;5.10;99.90;;;;;;5017822;28;20034;-62
2023/05/03 03:23:29;;;;;;;2.42;1.70;;;5.00;99.90;;;;;;5021488;28;20459;-62
2023/05/03 03:25:54;;;;;;;4.35;1.33;;;5.00;99.90;;;;;;5021985;28;20033;-62
2023/05/03 03:28:20;;;;;;;1.30;1.20;;;4.90;99.90;;;;;;5023703;28;20041;-62
2023/05/03 03:30:46;;;;;;;3.90;1.87;;;4.80;99.90;;;;;;5032392;28;20088;-62
2023/05/03 03:33:12;;;;;;;4.63;1.92;;;4.70;99.90;;;;;;5028468;28;20025;-62
2023/05/03 03:35:38;;;;;;;9.17;1.57;;;4.70;99.90;;;;;;5024694;28;20080;-62
2023/05/03 03:38:05;;;;;;;1.80;1.58;;;4.60;99.90;;;;;;5032509;28;20052;-76
2023/05/03 03:40:31;;;;;;;2.13;1.55;;;4.60;99.90;;;;;;5031599;28;20128;-62
2023/05/03 03:42:57;;;;;;;6.30;1.60;;;4.50;99.90;;;;;;5029927;28;20041;-61
2023/05/03 03:45:23;;;;;;;4.83;1.90;;;4.40;99.90;;;;;;5016623;28;20645;-62
2023/05/03 03:47:48;;;;;;;5.23;1.80;;;4.40;99.90;;;;;;5023975;28;20086;-77
2023/05/03 03:50:15;;;;;;;2.27;1.63;;;4.40;99.90;;;;;;5019921;28;20417;-62
2023/05/03 03:52:41;;;;;;;6.07;1.90;;;4.50;99.90;;;;;;5015960;28;20030;-62
2023/05/03 03:55:07;;;;;;;2.20;1.77;;;4.50;99.90;;;;;;5016057;28;20032;-62
2023/05/03 03:57:33;;;;;;;5.90;1.85;;;4.60;99.90;;;;;;5014465;28;20030;-62
2023/05/03 03:59:59;;;;;;;6.70;2.10;;;4.60;99.90;;;;;;5014456;28;20030;-62
2023/05/03 04:02:26;;;;;;;6.10;1.85;;;4.50;99.90;;;;;;5014272;28;20026;-62
2023/05/03 04:04:52;;;;;;;3.42;1.90;;;4.50;99.90;;;;;;5016839;28;20324;-76
2023/05/03 04:07:17;;;;;;;4.80;2.03;;;4.50;99.90;;;;;;5021794;28;20021;-62
2023/05/03 04:09:43;;;;;;;2.40;1.60;;;4.50;99.90;;;;;;5014610;28;20056;-62
2023/05/03 04:12:09;;;;;;;8.10;1.90;;;4.50;99.90;;;;;;5013677;28;20030;-62
2023/05/03 04:14:35;;;;;;;8.47;2.20;;;4.60;99.90;;;;;;5031432;28;20587;-62
2023/05/03 04:17:01;;;;;;;3.83;2.00;;;4.60;99.90;;;;;;5016127;28;20025;-62
2023/05/03 04:19:27;;;;;;;3.40;1.33;;;4.70;99.90;;;;;;5025603;28;20026;-61
2023/05/03 04:21:53;;;;;;;4.03;2.05;;;4.80;99.90;;;;;;5021438;28;20029;-67
2023/05/03 04:24:18;;;;;;;4.43;1.70;;;4.80;99.90;;;;;;5016235;28;20421;-62
2023/05/03 04:26:44;;;;;;;3.70;1.57;;;4.70;99.90;;;;;;5020354;28;20021;-62
2023/05/03 04:29:11;;;;;;;3.50;1.93;;;4.70;99.90;;;;;;5034739;28;20041;-62
2023/05/03 04:31:38;;;;;;;3.90;1.80;;;4.60;99.90;;;;;;5037717;28;20030;-63
2023/05/03 04:34:04;;;;;;;6.50;2.47;;;4.70;99.90;;;;;;5036304;28;20030;-62
2023/05/03 04:36:31;;;;;;;2.00;1.50;;;4.80;99.90;;;;;;5022980;28;20052;-62
2023/05/03 04:38:57;;;;;;;3.42;1.83;;;4.80;99.90;;;;;;5031781;28;20033;-62
2023/05/03 04:41:23;;;;;;;2.67;2.13;;;4.80;99.90;;;;;;5037020;28;20465;-62
2023/05/03 04:43:50;;;;;;;4.20;1.95;;;4.90;99.90;;;;;;5037753;28;20032;-71
2023/05/03 04:46:17;;;;;;;4.55;2.33;;;5.00;99.90;;;;;;5035864;28;20041;-69
2023/05/03 04:48:44;;;;;;;4.85;2.33;;;5.00;99.90;;;;;;5034128;28;20033;-69
2023/05/03 04:51:10;;;;;;;4.32;2.33;;;5.00;99.90;;;;;;5035847;28;20045;-69
2023/05/03 04:53:36;;;;;;;9.20;2.20;;;5.00;99.90;;;;;;5037469;28;20019;-67
2023/05/03 04:56:02;;;;;;;2.77;2.10;;;5.00;99.90;;;;;;5037699;28;20080;-69
2023/05/03 04:58:27;;;;;;;5.20;2.07;;;5.00;99.90;;;;;;5036845;28;20096;-68
2023/05/03 05:00:53;;;;;;;2.90;1.80;;;5.00;99.90;;;;;;5036836;28;20049;-69
2023/05/03 05:03:19;;;;;;;5.63;2.23;;;5.10;99.90;;;;;;5020369;28;20484;-74
2023/05/03 05:05:45;;;;;;;9.53;2.40;;;5.10;99.90;;;;;;5017062;28;20025;-74
2023/05/03 05:08:10;;;;;;;3.10;1.60;;;5.20;99.90;;;;;;5034970;28;20029;-71
2023/05/03 05:10:39;;;;;;;8.30;1.97;;;5.20;99.90;;;;;;5017798;28;20026;-71
2023/05/03 05:13:05;;;;;;;3.20;2.00;;;5.20;99.90;;;;;;5026441;28;20033;-71
2023/05/03 05:15:31;;;;;;;2.83;1.90;;;5.30;99.90;;;;;;5016993;28;20100;-71
2023/05/03 05:17:57;;;;;;;4.63;2.17;;;5.50;99.90;;;;;;5035613;28;20030;-64
2023/05/03 05:20:22;;;;;;;5.20;2.40;;;5.50;99.90;;;;;;5019883;28;20504;-65
2023/05/03 05:22:48;;;;;;;6.17;2.27;;;5.50;99.90;;;;;;5016667;28;20325;-70
2023/05/03 05:25:14;;;;;;;10.77;2.40;;;5.50;99.90;;;;;;5029641;28;20056;-71
2023/05/03 05:27:40;;;;;;;3.53;1.80;;;5.50;99.90;;;;;;5020066;28;20434;-70
2023/05/03 05:30:06;;;;;;;5.77;1.77;;;5.50;99.90;;;;;;5035270;28;20045;-75
2023/05/03 05:32:32;;;;;;;6.20;1.92;;;5.50;99.90;;;;;;5035656;28;20301;-71
2023/05/03 05:34:58;;;;;;;6.80;2.20;;;5.60;99.90;;;;;;5034845;28;20040;-62
2023/05/03 05:37:25;;;;;;;4.37;2.33;;;5.60;99.90;;;;;;5030221;28;20033;-62
2023/05/03 05:39:51;;;;;;;3.70;2.25;;;5.90;99.90;;;;;;5035802;28;20084;-62
2023/05/03 05:42:17;;;;;;;4.55;2.47;;;6.10;99.90;;;;;;5037067;28;20041;-62
2023/05/03 05:44:43;;;;;;;17.13;2.97;;;6.30;99.90;;;;;;5035895;28;20025;-63
2023/05/03 05:47:09;;;;;;;12.20;2.47;;;6.50;99.90;;;;;;5035338;28;20037;-62
2023/05/03 05:49:35;;;;;;;8.27;1.90;;;6.70;99.90;;;;;;5031409;28;20140;-75
2023/05/03 05:52:01;;;;;;;11.85;2.38;;;6.70;99.90;;;;;;5034690;28;20033;-62
2023/05/03 05:54:27;;;;;;;3.60;1.67;;;6.90;99.90;;;;;;5036621;28;20298;-62
2023/05/03 05:56:53;;;;;;;7.70;1.97;;;7.10;99.90;;;;;;5035857;28;20026;-62
2023/05/03 05:59:19;;;;;;;8.73;1.50;;;7.10;99.90;;;;;;5036640;28;20108;-76
2023/05/03 06:01:45;;;;;;;7.75;1.52;;;7.20;99.90;;;;;;5033780;28;20346;-62
2023/05/03 06:04:15;;;;;;;2.23;1.50;;;7.30;99.90;;;;;;5035940;28;20038;-62
2023/05/03 06:06:41;;;;;;;4.63;1.58;;;7.50;99.90;;;;;;5034452;28;20271;-62
2023/05/03 06:09:07;;;;;;;1.60;1.10;;;7.50;99.90;;;;;;5036270;28;20099;-62
2023/05/03 06:11:37;;;;;;;3.53;1.35;;;7.50;99.90;;;;;;5034998;28;20112;-62
2023/05/03 06:14:02;;;;;;;4.00;1.23;;;7.60;99.90;;;;;;5034510;28;20323;-62
2023/05/03 06:16:28;;;;;;;2.90;1.40;;;7.60;99.90;;;;;;5036202;28;20022;-62
2023/05/03 06:18:55;;;;;;;6.53;1.60;;;7.70;99.90;;;;;;5035622;28;20104;-62
2023/05/03 06:21:21;;;;;;;13.05;1.55;;;7.80;99.90;;;;;;5036009;28;20340;-62
2023/05/03 06:23:46;;;;;;;9.40;1.33;;;7.80;99.90;;;;;;5034794;28;20053;-62
2023/05/03 06:26:12;;;;;;;2.70;1.33;;;7.90;99.90;;;;;;5034556;28;20290;-63
2023/05/03 06:28:38;;;;;;;1.60;1.03;;;8.00;99.90;;;;;;5031427;28;20040;-62
2023/05/03 06:31:04;;;;;;;2.83;1.03;;;8.00;99.90;;;;;;5031391;28;20092;-61
2023/05/03 06:33:30;;;;;;;3.65;0.98;;;8.00;99.90;;;;;;5033929;28;20376;-75
2023/05/03 06:35:57;;;;;;;3.73;1.13;;;8.10;99.90;;;;;;5031791;28;20033;-76
2023/05/03 06:38:23;;;;;;;6.00;1.02;;;8.20;99.90;;;;;;5034714;28;20087;-62
2023/05/03 06:40:50;;;;;;;6.97;1.10;;;8.20;99.90;;;;;;5034968;28;20034;-62
2023/05/03 06:43:15;;;;;;;13.68;1.40;;;8.20;99.90;;;;;;5028885;28;20018;-62
2023/05/03 06:45:43;;;;;;;2.93;0.70;;;8.20;99.90;;;;;;5033031;28;20075;-62
2023/05/03 06:48:09;;;;;;;3.50;0.80;;;8.30;99.90;;;;;;5030128;28;20022;-62
2023/05/03 06:50:35;;;;;;;0.60;0.60;;;8.30;99.90;;;;;;5033501;28;20024;-71
2023/05/03 06:53:01;;;;;;;6.97;0.90;;;8.30;99.90;;;;;;5032510;28;20396;-62
2023/05/03 06:55:27;;;;;;;2.17;0.95;;;8.30;99.90;;;;;;5032965;28;20033;-62
2023/05/03 06:57:53;;;;;;;4.33;1.10;;;8.40;99.90;;;;;;5034706;28;20030;-62
2023/05/03 07:00:22;;;;;;;2.77;1.13;;;8.40;99.90;;;;;;5030152;28;20041;-76
2023/05/03 07:02:48;;;;;;;5.30;1.30;;;8.50;99.90;;;;;;5032883;28;20028;-62
2023/05/03 07:05:14;;;;;;;6.55;1.20;;;8.60;99.90;;;;;;5029332;28;20371;-63
2023/05/03 07:07:40;;;;;;;8.07;1.63;;;8.60;99.90;;;;;;5033796;28;20025;-67
2023/05/03 07:10:06;;;;;;;1.97;0.80;;;8.70;99.90;;;;;;5032674;28;20072;-62
2023/05/03 07:12:32;;;;;;;4.20;1.13;;;8.80;99.90;;;;;;5034256;28;20588;-62
2023/05/03 07:14:57;;;;;;;4.67;1.10;;;8.70;99.90;;;;;;5019947;28;20072;-62
2023/05/03 07:17:24;;;;;;;4.37;1.30;;;8.80;99.90;;;;;;5015037;28;20031;-63
2023/05/03 07:19:50;;;;;;;6.55;1.00;;;9.10;99.90;;;;;;5015345;28;20032;-62
2023/05/03 07:22:19;;;;;;;4.75;0.88;;;9.30;99.90;;;;;;5018958;28;20029;-62
2023/05/03 07:24:45;;;;;;;4.20;1.17;;;9.60;99.90;;;;;;5023855;28;20022;-62
2023/05/03 07:27:10;;;;;;;2.80;1.20;;;9.90;99.90;;;;;;5014087;28;20105;-63
2023/05/03 07:29:36;;;;;;;1.97;0.50;;;10.10;99.90;;;;;;5031608;28;20053;-62
2023/05/03 07:32:02;;;;;;;2.40;1.10;;;10.00;99.90;;;;;;5037516;28;20449;-62
2023/05/03 07:34:28;;;;;;;2.63;1.10;;;10.10;99.90;;;;;;5032840;28;20017;-75
2023/05/03 07:36:54;;;;;;;2.80;0.87;;;10.20;99.90;;;;;;5031457;28;20118;-62
2023/05/03 07:39:20;;;;;;;4.93;1.43;;;10.50;99.90;;;;;;5032690;28;20033;-62
2023/05/03 07:41:46;;;;;;;6.13;1.00;;;10.80;99.90;;;;;;5031610;28;20036;-62
2023/05/03 07:44:11;;;;;;;1.83;0.80;;;11.20;99.90;;;;;;5032084;28;20029;-62
2023/05/03 07:46:37;;;;;;;3.10;1.20;;;11.50;99.90;;;;;;5030288;28;20078;-63
2023/05/03 07:49:05;;;;;;;1.20;1.10;;;11.70;99.90;;;;;;5031319;28;20025;-75
2023/05/03 07:51:38;;;;;;;1.83;1.08;;;12.00;99.90;;;;;;5028735;28;20033;-70
2023/05/03 07:54:04;;;;;;;4.50;1.40;;;12.00;99.90;;;;;;5031893;28;20312;-62
2023/05/03 07:56:31;;;;;;;5.38;2.60;;;12.10;99.90;;;;;;5033271;28;20250;-62
2023/05/03 07:58:56;;;;;;;4.72;1.60;;;12.20;99.90;;;;;;5034011;28;20095;-62
2023/05/03 08:01:23;;;;;;;4.00;1.47;;;11.90;99.90;;;;;;5029961;28;20068;-62
2023/05/03 08:03:49;;;;;;;3.70;1.33;;;11.70;99.90;;;;;;5033702;28;20479;-63
2023/05/03 08:06:16;;;;;;;6.03;1.10;;;11.90;99.90;;;;;;5036390;28;20111;-62
2023/05/03 08:08:42;;;;;;;8.82;1.65;;;12.00;99.90;;;;;;5034718;28;20353;-63
2023/05/03 08:11:08;;;;;;;3.17;1.03;;;12.20;99.90;;;;;;5037976;28;20040;-63
2023/05/03 08:13:35;;;;;;;0.98;0.82;;;12.40;99.90;;;;;;5037146;28;20329;-63
2023/05/03 08:16:01;;;;;;;4.78;0.90;;;12.70;99.90;;;;;;5036832;28;20336;-63
2023/05/03 08:18:27;;;;;;;5.85;0.88;;;12.80;99.90;;;;;;5035974;28;20049;-63
2023/05/03 08:20:53;;;;;;;4.97;1.60;;;12.80;99.90;;;;;;5036905;28;20083;-67
2023/05/03 08:23:20;;;;;;;1.87;1.10;;;12.80;99.90;;;;;;5036061;28;20026;-63
2023/05/03 08:25:45;;;;;;;;;;;12.70;99.90;;;;;;5019757;28;20064;-62
2023/05/03 08:28:11;;;;;;;4.33;1.40;;;13.00;99.90;;;;;;5037263;28;19909;-62
2023/05/03 08:30:37;;;;;;;1.17;0.80;;;12.80;99.90;;;;;;5036044;28;20274;-66
2023/05/03 08:33:03;;;;;;;4.17;1.20;;;12.40;99.90;;;;;;5033370;28;20024;-64
2023/05/03 08:35:30;;;;;;;4.23;1.30;;;12.10;99.90;;;;;;5038781;28;20026;-62
2023/05/03 08:37:56;;;;;;;2.33;1.27;;;11.80;99.90;;;;;;5021274;28;20084;-62
2023/05/03 08:40:22;;;;;;;2.07;0.57;;;11.50;99.90;;;;;;5027007;28;20429;-62
2023/05/03 08:42:49;;;;;;;5.55;1.40;;;11.40;99.90;;;;;;5019069;28;20479;-75
2023/05/03 08:45:16;;;;;;;2.58;0.98;;;11.30;99.90;;;;;;5030283;28;20045;-62
2023/05/03 08:47:46;;;;;;;2.70;1.10;;;11.30;99.90;;;;;;5028734;28;20337;-62
2023/05/03 08:50:15;;;;;;;1.50;1.15;;;11.30;99.90;;;;;;5032890;28;20101;-62
2023/05/03 08:52:42;;;;;;;5.78;1.52;;;11.20;99.90;;;;;;5033938;28;20026;-63
2023/05/03 08:55:09;;;;;;;1.95;1.10;;;10.90;99.90;;;;;;5030780;28;20115;-70
2023/05/03 08:57:35;;;;;;;4.90;1.05;;;10.90;99.90;;;;;;5034152;28;20424;-71
2023/05/03 09:00:04;;;;;;;3.67;1.00;;;11.00;99.90;;;;;;5034497;28;20036;-63
2023/05/03 09:02:33;;;;;;;4.18;1.38;;;11.20;99.90;;;;;;5036661;28;20029;-65
2023/05/03 09:04:59;;;;;;;4.60;1.08;;;11.40;99.90;;;;;;5034055;28;20455;-73
2023/05/03 09:07:25;;;;;;;2.33;1.52;;;11.30;99.90;;;;;;5034281;28;20421;-64
2023/05/03 09:09:53;;;;;;;1.90;1.10;;;11.50;99.90;;;;;;5033942;28;20075;-71
2023/05/03 09:12:37;;;;;;;3.10;1.63;;;11.80;99.90;;;;;;5031797;28;20425;-66
2023/05/03 09:15:05;;;;;;;2.58;1.00;;;12.10;99.90;;;;;;5032372;28;20025;-62
2023/05/03 09:17:31;;;;;;;1.58;1.10;;;12.20;99.90;;;;;;5034777;28;20025;-69
2023/05/03 09:19:58;;;;;;;1.37;0.87;;;12.40;99.90;;;;;;5036386;28;20022;-72
2023/05/03 09:22:31;;;;;;;1.98;1.08;;;12.10;99.90;;;;;;5033694;28;20033;-70
2023/05/03 09:24:59;;;;;;;5.30;1.52;;;12.00;99.90;;;;;;5024130;28;20029;-67
2023/05/03 09:27:26;;;;;;;3.40;1.35;;;12.10;99.90;;;;;;5033624;28;20080;-70
2023/05/03 09:29:53;;;;;;;;;;;12.30;99.90;;;;;;5034492;28;20080;-63
2023/05/03 09:32:21;;;;;;;2.60;1.20;;;12.20;99.90;;;;;;5034401;28;19913;-70
2023/05/03 09:34:47;;;;;;;5.63;1.15;;;12.20;99.90;;;;;;5031844;28;20028;-65
2023/05/03 09:37:13;;;;;;;1.52;1.10;;;12.40;99.90;;;;;;5034193;28;20060;-67
2023/05/03 09:39:44;;;;;;;1.60;0.73;;;12.50;99.90;;;;;;5031742;28;20089;-63
2023/05/03 09:42:11;;;;;;;2.58;0.90;;;12.60;99.90;;;;;;5035854;28;20056;-64
2023/05/03 09:44:53;;;;;;;4.20;1.42;;;12.50;99.90;;;;;;5033154;28;20036;-67
2023/05/03 09:47:23;;;;;;;1.48;1.00;;;12.60;99.90;;;;;;5032093;28;20028;-63
2023/05/03 09:49:49;;;;;;;4.70;1.17;;;12.30;99.90;;;;;;5032131;28;20036;-63
2023/05/03 09:52:15;;;;;;;7.75;1.88;;;12.60;99.90;;;;;;5034852;28;20032;-64
2023/05/03 09:54:42;;;;;;;2.17;1.20;;;12.40;99.90;;;;;;5032475;28;20052;-63
2023/05/03 09:57:08;;;;;;;6.35;1.17;;;12.50;99.90;;;;;;5033182;28;20887;-63
2023/05/03 09:59:36;;;;;;;2.33;1.27;;;12.90;99.90;;;;;;5030881;28;20033;-63
2023/05/03 10:02:06;;;;;;;1.48;1.08;;;13.30;99.90;;;;;;5025885;28;20275;-64
2023/05/03 10:04:46;;;;;;;3.83;1.30;;;13.20;99.90;;;;;;5032223;28;20332;-64
2023/05/03 10:07:14;;;;;;;8.20;1.98;;;13.10;99.90;;;;;;5026322;28;20034;-70
2023/05/03 10:09:46;;;;;;;7.28;1.45;;;13.00;99.90;;;;;;5034887;28;20028;-66
2023/05/03 10:12:15;;;;;;;5.18;1.63;;;13.20;99.90;;;;;;5027579;28;20021;-63
2023/05/03 10:14:43;;;;;;;7.05;1.30;;;13.40;99.90;;;;;;5031983;28;20058;-66
2023/05/03 10:17:30;;;;;;;3.45;1.25;;;13.20;99.90;;;;;;5029916;28;20014;-65
2023/05/03 10:20:08;;;;;;;3.97;1.60;;;13.30;99.90;;;;;;5033297;28;20025;-70
2023/05/03 10:23:03;;;;;;;4.50;1.40;;;13.50;99.90;;;;;;5031488;28;20031;-63
2023/05/03 10:25:30;;;;;;;5.22;1.48;;;13.20;99.90;;;;;;5031219;28;20031;-70
2023/05/03 10:28:04;;;;;;;4.65;1.55;;;13.10;99.90;;;;;;5034113;28;20036;-64
2023/05/03 10:30:40;;;;;;;4.40;1.75;;;13.00;99.90;;;;;;5033264;28;20081;-64
2023/05/03 10:33:09;;;;;;;2.38;1.30;;;13.00;99.90;;;;;;5033627;28;20017;-65
2023/05/03 10:35:38;;;;;;;5.38;1.42;;;13.10;99.90;;;;;;5028492;28;20021;-67
2023/05/03 10:38:28;;;;;;;2.95;1.80;;;13.20;99.90;;;;;;5026692;28;20053;-63
2023/05/03 10:40:55;;;;;;;4.63;1.58;;;13.70;99.90;;;;;;5031820;28;20413;-63
2023/05/03 10:43:30;;;;;;;4.97;1.40;;;14.00;99.90;;;;;;5030088;28;20040;-69
2023/05/03 10:46:02;;;;;;;1.90;1.13;;;14.30;99.90;;;;;;5032234;28;20100;-65
2023/05/03 10:48:29;;;;;;;3.85;1.40;;;14.30;99.90;;;;;;5030825;28;20037;-64
2023/05/03 10:50:56;;;;;;;3.88;1.60;;;14.50;99.90;;;;;;5033443;28;20026;-63
2023/05/03 10:53:37;;;;;;;3.97;1.45;;;14.40;99.90;;;;;;5030040;28;20409;-72
2023/05/03 10:56:06;;;;;;;3.00;1.58;;;14.00;99.90;;;;;;5016118;28;20069;-64
2023/05/03 10:58:55;;;;;;;4.38;1.70;;;13.70;99.90;;;;;;5024055;28;20064;-67
2023/05/03 11:01:23;;;;;;;1.67;1.58;;;13.70;99.90;;;;;;5032290;28;20099;-64
2023/05/03 11:04:21;;;;;;;5.38;1.77;;;13.60;99.90;;;;;;5020533;28;20034;-66
2023/05/03 11:06:50;;;;;;;5.95;1.48;;;13.80;99.90;;;;;;5011529;28;20067;-63
2023/05/03 11:09:17;;;;;;;2.95;1.50;;;13.60;99.90;;;;;;5019349;28;20034;-67
2023/05/03 11:11:43;;;;;;;1.95;1.50;;;13.80;99.90;;;;;;5019349;28;20033;-63
2023/05/03 11:14:10;;;;;;;5.03;1.63;;;13.90;99.90;;;;;;5014621;28;20030;-73
2023/05/03 11:16:39;;;;;;;4.82;1.50;;;13.90;99.90;;;;;;5020259;28;20113;-63
2023/05/03 11:19:05;;;;;;;6.25;1.80;;;13.60;99.90;;;;;;5024340;28;20052;-64
2023/05/03 11:21:32;;;;;;;6.37;1.53;;;13.70;99.90;;;;;;5027962;28;20072;-68
2023/05/03 11:23:58;;;;;;;;;;;13.80;99.90;;;;;;5025530;28;20037;-64
2023/05/03 11:26:24;;;;;;;6.25;1.70;;;14.20;99.90;;;;;;5018712;28;20271;-68
2023/05/03 11:28:51;;;;;;;3.17;1.65;;;14.30;99.90;;;;;;5022088;28;20531;-64
2023/05/03 11:31:16;;;;;;;3.20;1.70;;;14.30;99.90;;;;;;5027920;28;20052;-64
2023/05/03 11:33:42;;;;;;;3.07;1.50;;;14.30;99.90;;;;;;5013334;28;20025;-71
2023/05/03 11:36:08;;;;;;;8.43;1.70;;;14.00;99.90;;;;;;5019206;28;20041;-67
2023/05/03 11:38:36;;;;;;;7.13;1.55;;;13.90;99.90;;;;;;5028918;28;20068;-63
2023/05/03 11:41:15;;;;;;;3.28;1.70;;;13.90;99.90;;;;;;5029350;28;20033;-71
2023/05/03 11:43:46;;;;;;;4.25;1.73;;;13.90;99.90;;;;;;5029808;28;20029;-67
2023/05/03 11:46:17;;;;;;;5.13;1.60;;;14.00;99.90;;;;;;5031623;28;20075;-69
2023/05/03 11:48:44;;;;;;;3.00;1.58;;;14.10;99.90;;;;;;5031329;28;20100;-63
2023/05/03 11:51:11;;;;;;;4.43;1.85;;;14.20;99.90;;;;;;5025378;28;20030;-66
2023/05/03 11:53:38;;;;;;;;;;;14.30;99.90;;;;;;5026294;28;20108;-63
2023/05/03 11:56:07;;;;;;;3.28;1.70;;;14.50;99.90;;;;;;5027167;28;19909;-73
2023/05/03 11:58:34;;;;;;;5.45;2.53;;;14.50;99.90;;;;;;5027542;28;20029;-63
2023/05/03 12:01:00;;;;;;;2.60;1.60;;;14.50;99.90;;;;;;5029080;28;20432;-64
2023/05/03 12:03:34;;;;;;;9.90;1.93;;;14.60;99.90;;;;;;5031297;28;20030;-64
2023/05/03 12:06:00;;;;;;;7.30;2.00;;;14.30;99.90;;;;;;5030129;28;20044;-63
2023/05/03 12:08:33;;;;;;;7.53;2.17;;;14.10;99.80;;;;;;5029350;28;20033;-63
2023/05/03 12:11:03;;;;;;;2.17;1.63;;;14.10;99.90;;;;;;5026753;28;20090;-64
2023/05/03 12:13:34;;;;;;;5.07;2.17;;;14.40;99.90;;;;;;5026026;28;20129;-64
2023/05/03 12:16:02;;;;;;;6.45;2.33;;;14.70;99.90;;;;;;5022655;28;20104;-63
2023/05/03 12:18:48;;;;;;;5.85;1.85;;;14.60;99.90;;;;;;5035221;28;20437;-63
2023/05/03 12:21:14;;;;;;;;;;;14.50;99.90;;;;;;5033795;28;20080;-70
2023/05/03 12:23:41;;;;;;;5.50;2.33;;;14.10;99.90;;;;;;5032928;28;19916;-64
2023/05/03 12:26:07;;;;;;;7.30;2.22;;;14.10;99.90;;;;;;5033988;28;20038;-70
2023/05/03 12:28:33;;;;;;;5.88;2.75;;;13.70;99.90;;;;;;5033258;28;20026;-63
2023/05/03 12:30:59;;;;;;;5.00;1.73;;;13.80;99.90;;;;;;5030676;28;21578;-72
2023/05/03 12:33:25;;;;;;;8.18;2.40;;;13.90;99.90;;;;;;5022449;28;20063;-66
2023/05/03 12:35:51;;;;;;;1.92;1.75;;;14.10;99.90;;;;;;5028371;28;20084;-64
2023/05/03 12:38:17;;;;;;;7.13;2.20;;;13.80;99.90;;;;;;5033470;28;20421;-64
2023/05/03 12:40:44;;;;;;;2.87;2.03;;;13.20;99.90;;;;;;5039079;28;20064;-70
2023/05/03 12:43:10;;;;;;;5.65;2.35;;;12.90;99.90;;;;;;5034749;28;20034;-64
2023/05/03 12:45:36;;;;;;;4.30;2.00;;;13.00;99.90;;;;;;5035272;28;20033;-65
2023/05/03 12:48:02;;;;;;;8.13;2.80;;;12.90;99.90;;;;;;5036367;28;20428;-65
2023/05/03 12:50:29;;;;;;;2.20;1.25;;;12.80;99.90;;;;;;5032783;28;20034;-64
2023/05/03 12:52:55;;;;;;;4.10;1.95;;;12.80;99.90;;;;;;5033862;28;20025;-62
2023/05/03 12:55:21;;;;;;;0.75;0.70;;;12.90;99.90;;;;;;5032400;28;20128;-64
2023/05/03 12:57:46;;;;;;;3.00;2.00;;;12.90;99.90;;;;;;5036493;28;20104;-63